KPSM/PSM METAR and TAF weather

Enter ICAO airport designator
Station Type Date Time Source
KPSM METAR 2019/04/25 16:56 UTC NOAA

KPSM 251656Z 13011KT 10SM BKN044 12/02 A2993 RMK AO2A SLP138 T01170024


Station Type Date Time Source
KPSM Decoded METAR 2019/04/25 16:56 UTC NOAA

Pease Air Force Base / Portsmouth, NH, United States (KPSM) 43-05N 070-49W
Apr 25, 2019 - 12:56 PM EDT / 2019.04.25 1656 UTC
Wind: from the SE (130 degrees) at 13 MPH (11 KT):0
Visibility: 10 mile(s):0
Sky conditions: mostly cloudy
Temperature: 53.1 F (11.7 C)
Dew Point: 36.3 F (2.4 C)
Relative Humidity: 52%
Pressure (altimeter): 29.93 in. Hg (1013 hPa)
ob: KPSM 251656Z 13011KT 10SM BKN044 12/02 A2993 RMK AO2A SLP138 T01170024
cycle: 17

Station Type Date Time Source
KPSM TAF 2019/04/25 18:42 UTC NOAA

TAF KPSM 251739Z 2518/2618 13011KT P6SM SCT045
FM260000 VRB04KT P6SM FEW250
FM261300 10007KT P6SM OVC050
FM261500 10008KT 4SM -RA OVC025

Example: see airport list